Time;durP1;ratioP1;P1;durP2;ratioP2;P2;SDS_P1;SDS_P2;PMS_P1;PMS_P2;Temp;Humidity;BMP_temperature;BMP_pressure;BME280_temperature;BME280_humidity;BME280_pressure;Samples;Min_cycle;Max_cycle;Signal;HPM_P1;HPM_P2
2021/12/31 00:01:18;;;;;;;;;15.75;12.00;;;;;20.91;46.72;101641.63;5058941;28;46900;-53
2021/12/31 00:03:44;;;;;;;;;12.75;10.75;;;;;20.89;46.84;101635.56;5059023;28;45410;-50
2021/12/31 00:06:09;;;;;;;;;17.00;11.75;;;;;20.87;46.34;101629.53;5059203;28;45314;-49
2021/12/31 00:08:34;;;;;;;;;12.75;9.25;;;;;20.86;46.76;101633.09;5057964;28;45447;-53
2021/12/31 00:11:01;;;;;;;;;11.75;10.00;;;;;20.82;46.52;101631.50;5058827;28;45811;-53
2021/12/31 00:13:28;;;;;;;;;11.75;9.25;;;;;20.82;46.55;101637.63;5058829;28;45774;-46
2021/12/31 00:15:53;;;;;;;;;15.50;11.50;;;;;20.84;46.57;101634.91;5059403;28;45335;-52
2021/12/31 00:18:19;;;;;;;;;12.25;9.50;;;;;20.81;46.77;101632.41;5058416;28;45244;-46
2021/12/31 00:20:44;;;;;;;;;9.50;8.75;;;;;20.80;46.48;101633.34;5058723;28;46377;-46
2021/12/31 00:23:12;;;;;;;;;10.00;10.00;;;;;20.78;46.87;101622.88;5058730;28;45455;-45
2021/12/31 00:25:40;;;;;;;;;11.50;9.00;;;;;20.77;46.88;101617.69;5058807;28;45454;-48
2021/12/31 00:28:07;;;;;;;;;11.50;9.00;;;;;20.76;46.56;101615.97;5059054;28;45568;-53
2021/12/31 00:30:34;;;;;;;;;10.25;9.00;;;;;20.74;47.05;101612.50;5058467;27;47172;-48
2021/12/31 00:33:01;;;;;;;;;16.50;10.25;;;;;20.70;46.58;101604.72;5058447;28;45284;-47
2021/12/31 00:35:31;;;;;;;;;13.50;10.00;;;;;20.69;46.66;101608.28;5058625;28;45442;-53
2021/12/31 00:37:56;;;;;;;;;9.25;9.25;;;;;20.68;46.81;101608.38;5058974;28;45748;-53
2021/12/31 00:40:22;;;;;;;;;10.00;8.75;;;;;20.69;46.52;101602.19;5058709;28;46102;-51
2021/12/31 00:42:48;;;;;;;;;7.50;6.00;;;;;20.67;46.57;101610.13;5058505;28;45275;-52
2021/12/31 00:45:18;;;;;;;;;12.00;9.75;;;;;20.65;46.99;101609.34;5058639;28;45372;-53
2021/12/31 00:47:44;;;;;;;;;9.25;8.00;;;;;20.64;47.02;101607.66;5058637;28;45591;-51
2021/12/31 00:50:11;;;;;;;;;11.00;9.25;;;;;20.63;46.80;101610.31;5058136;28;45652;-52
2021/12/31 00:52:36;;;;;;;;;11.25;8.75;;;;;20.61;47.10;101607.78;5058242;28;45390;-50
2021/12/31 00:55:03;;;;;;;;;7.75;7.50;;;;;20.61;46.77;101613.03;5058581;28;45168;-46
2021/12/31 00:57:29;;;;;;;;;5.00;5.00;;;;;20.61;46.74;101613.03;5058449;28;45521;-51
2021/12/31 00:59:54;;;;;;;;;12.50;10.00;;;;;20.59;46.91;101611.41;5058328;28;45310;-51
2021/12/31 01:02:22;;;;;;;;;10.25;8.25;;;;;20.58;46.46;101613.16;5058206;28;45565;-48
2021/12/31 01:04:47;;;;;;;;;10.75;9.75;;;;;20.55;47.04;101611.53;5058281;28;45428;-50
2021/12/31 01:07:12;;;;;;;;;8.00;8.00;;;;;20.54;47.31;101608.97;5058236;28;45738;-52
2021/12/31 01:09:38;;;;;;;;;7.25;7.00;;;;;20.53;46.83;101599.34;5058167;28;45294;-51
2021/12/31 01:12:06;;;;;;;;;9.50;8.00;;;;;20.51;47.02;101585.41;5057943;28;45410;-51
2021/12/31 01:14:36;;;;;;;;;11.25;7.75;;;;;20.50;46.75;101587.19;5058148;28;45442;-50
2021/12/31 01:17:05;;;;;;;;;10.25;9.75;;;;;20.48;46.73;101586.38;5058266;28;45325;-52
2021/12/31 01:19:45;;;;;;;;;6.75;6.75;;;;;20.48;46.70;101585.53;5057776;28;46239;-46
2021/12/31 01:22:10;;;;;;;;;8.25;8.25;;;;;20.46;46.63;101579.47;5057901;28;45858;-50
2021/12/31 01:24:36;;;;;;;;;10.00;8.50;;;;;20.45;46.74;101580.41;5057838;28;45518;-49
2021/12/31 01:27:01;;;;;;;;;8.25;7.25;;;;;20.43;46.87;101579.63;5057905;28;45440;-47
2021/12/31 01:29:26;;;;;;;;;8.00;8.00;;;;;20.38;47.16;101579.81;5056945;28;45390;-48
2021/12/31 01:31:54;;;;;;;;;7.00;7.00;;;;;20.41;47.20;101578.81;5057583;28;45320;-46
2021/12/31 01:34:22;;;;;;;;;8.50;7.00;;;;;20.40;46.99;101572.69;5057767;28;45332;-46
2021/12/31 01:36:48;;;;;;;;;11.00;9.00;;;;;20.39;47.04;101573.63;5057743;28;45637;-47
2021/12/31 01:39:13;;;;;;;;;7.00;7.00;;;;;20.35;46.78;101572.88;5056215;28;46652;-52
2021/12/31 01:41:40;;;;;;;;;9.75;7.25;;;;;20.36;47.10;101590.38;5057473;28;45442;-47
2021/12/31 01:44:06;;;;;;;;;10.00;8.50;;;;;20.35;46.99;101590.47;5057514;28;45229;-51
2021/12/31 01:46:33;;;;;;;;;8.00;7.00;;;;;20.34;47.08;101588.75;5057776;28;45379;-49
2021/12/31 01:49:02;;;;;;;;;10.00;7.00;;;;;20.34;47.01;101597.50;5057602;28;46434;-50
2021/12/31 01:51:28;;;;;;;;;7.75;6.25;;;;;20.33;46.87;101603.69;5057437;28;45766;-50
2021/12/31 01:53:54;;;;;;;;;8.00;7.25;;;;;20.33;47.00;101613.34;5057418;28;45271;-51
2021/12/31 01:56:20;;;;;;;;;7.25;7.00;;;;;20.31;47.14;101616.06;5057575;28;45240;-48
2021/12/31 01:58:53;;;;;;;;;9.50;7.75;;;;;20.30;46.73;101617.00;5057121;28;46607;-54
2021/12/31 02:01:19;;;;;;;;;11.00;8.75;;;;;20.26;46.83;101610.13;5057236;28;45764;-53
2021/12/31 02:03:45;;;;;;;;;8.00;7.75;;;;;20.28;46.75;101615.34;5057360;28;45190;-53
2021/12/31 02:06:10;;;;;;;;;9.25;7.25;;;;;20.28;46.79;101604.81;5057561;28;45592;-52
2021/12/31 02:08:36;;;;;;;;;7.25;6.25;;;;;20.28;47.23;101604.81;5056846;28;46278;-50
2021/12/31 02:11:01;;;;;;;;;6.75;6.75;;;;;20.26;46.73;101601.38;5057100;28;45278;-49
2021/12/31 02:13:28;;;;;;;;;7.75;7.75;;;;;20.26;46.68;101604.88;5057408;28;45370;-49
2021/12/31 02:15:54;;;;;;;;;13.25;7.50;;;;;20.22;46.81;101592.78;5057216;28;45299;-48
2021/12/31 02:18:19;;;;;;;;;10.00;7.75;;;;;20.24;47.29;101588.28;5056745;28;45433;-46
2021/12/31 02:20:47;;;;;;;;;7.25;7.00;;;;;20.23;47.01;101594.44;5056929;28;45416;-44
2021/12/31 02:23:27;;;;;;;;;7.50;7.50;;;;;20.24;46.73;101597.03;5057005;28;45303;-51
2021/12/31 02:25:53;;;;;;;;;7.75;7.75;;;;;20.22;47.22;101585.72;5057198;28;45437;-52
2021/12/31 02:28:20;;;;;;;;;6.50;5.50;;;;;20.22;46.98;101583.09;5056698;28;45698;-45
2021/12/31 02:30:47;;;;;;;;;6.00;6.00;;;;;20.21;46.82;101588.44;5056724;28;45320;-51
2021/12/31 02:33:13;;;;;;;;;7.25;7.00;;;;;20.20;47.10;101577.03;5057082;28;45264;-53
2021/12/31 02:35:39;;;;;;;;;6.50;4.50;;;;;20.20;46.83;101576.19;5057088;28;45502;-53
2021/12/31 02:38:06;;;;;;;;;7.00;6.50;;;;;20.19;46.66;101579.72;5055371;28;48628;-47
2021/12/31 02:40:33;;;;;;;;;8.50;5.00;;;;;20.19;46.97;101574.47;5056862;28;45505;-51
2021/12/31 02:42:59;;;;;;;;;6.25;6.25;;;;;20.18;46.92;101573.59;5057027;28;45335;-53
2021/12/31 02:45:37;;;;;;;;;8.50;7.00;;;;;20.17;47.05;101568.41;5056821;28;45370;-51
2021/12/31 02:48:04;;;;;;;;;6.50;6.50;;;;;20.17;46.57;101565.78;5056798;28;46183;-51
2021/12/31 02:50:39;;;;;;;;;6.00;6.00;;;;;20.15;46.48;101564.97;5056839;28;45357;-53
2021/12/31 02:53:06;;;;;;;;;9.00;7.25;;;;;20.15;46.57;101567.59;5056583;28;45323;-51
2021/12/31 02:55:34;;;;;;;;;7.00;7.00;;;;;20.13;46.74;101554.53;5057152;28;45355;-52
2021/12/31 02:58:00;;;;;;;;;6.50;5.25;;;;;20.12;46.64;101542.28;5056775;28;46357;-51
2021/12/31 03:00:28;;;;;;;;;7.25;6.50;;;;;20.13;46.91;101551.88;5056646;28;45437;-51
2021/12/31 03:02:55;;;;;;;;;7.75;6.00;;;;;20.12;46.66;101551.97;5056719;28;45212;-53
2021/12/31 03:05:23;;;;;;;;;7.00;7.00;;;;;20.11;47.04;101540.56;5056977;28;45331;-52
2021/12/31 03:07:50;;;;;;;;;6.00;5.00;;;;;20.12;46.45;101547.53;5056319;28;46716;-51
2021/12/31 03:10:17;;;;;;;;;9.50;7.75;;;;;20.11;46.78;101545.00;5056454;28;45879;-52
2021/12/31 03:12:43;;;;;;;;;4.50;4.00;;;;;20.09;46.59;101545.03;5056612;28;45233;-50
2021/12/31 03:15:10;;;;;;;;;7.25;5.00;;;;;20.10;46.52;101548.53;5056724;28;45312;-50
2021/12/31 03:17:37;;;;;;;;;5.00;5.00;;;;;20.07;46.53;101547.75;5056033;28;46984;-52
2021/12/31 03:20:25;;;;;;;;;7.75;6.50;;;;;20.08;46.47;101562.63;5056528;28;45443;-53
2021/12/31 03:22:51;;;;;;;;;8.25;6.00;;;;;20.08;47.04;101570.50;5056180;28;45331;-51
2021/12/31 03:25:16;;;;;;;;;5.50;5.00;;;;;20.08;46.63;101573.13;5055316;28;45447;-50
2021/12/31 03:27:41;;;;;;;;;8.00;7.00;;;;;20.07;46.79;101587.22;5055980;28;46549;-53
2021/12/31 03:30:10;;;;;;;;;7.25;7.00;;;;;20.07;46.77;101591.59;5055921;28;45243;-48
2021/12/31 03:32:35;;;;;;;;;4.50;4.50;;;;;20.06;46.56;101609.19;5056097;28;45393;-54
2021/12/31 03:35:00;;;;;;;;;6.75;5.00;;;;;20.04;46.51;101616.28;5056465;28;45558;-52
2021/12/31 03:37:26;;;;;;;;;6.50;6.00;;;;;20.04;46.79;101629.44;5055862;28;46684;-51
2021/12/31 03:39:51;;;;;;;;;6.75;5.00;;;;;20.05;46.62;101636.41;5056011;28;45437;-50
2021/12/31 03:42:18;;;;;;;;;5.00;5.00;;;;;20.03;46.50;101619.81;5055474;28;50239;-51
2021/12/31 03:44:43;;;;;;;;;6.00;6.00;;;;;20.03;46.93;101611.09;5056069;28;45633;-54
2021/12/31 03:47:08;;;;;;;;;6.75;5.75;;;;;20.04;46.42;101597.03;5055774;28;46572;-51
2021/12/31 03:49:34;;;;;;;;;6.50;4.75;;;;;20.03;46.65;101580.34;5056016;28;45322;-53
2021/12/31 03:52:00;;;;;;;;;6.00;4.50;;;;;20.01;46.65;101563.78;5056220;28;45429;-49
2021/12/31 03:54:25;;;;;;;;;7.00;5.25;;;;;19.99;46.58;101560.38;5059564;28;45411;-52
2021/12/31 03:56:51;;;;;;;;;5.00;4.00;;;;;20.01;46.84;101566.41;5059000;28;45480;-49
2021/12/31 03:59:16;;;;;;;;;4.75;4.75;;;;;20.01;46.80;101570.81;5058998;28;45706;-48
2021/12/31 04:01:41;;;;;;;;;5.25;5.25;;;;;19.99;46.72;101557.75;5059162;28;45299;-53
2021/12/31 04:04:08;;;;;;;;;5.50;5.50;;;;;19.98;46.65;101545.50;5059417;28;45621;-49
2021/12/31 04:06:34;;;;;;;;;5.00;5.00;;;;;19.98;46.68;101540.25;5059284;28;46404;-52
2021/12/31 04:08:59;;;;;;;;;4.25;4.00;;;;;19.97;46.80;101535.91;5057482;28;45748;-50
2021/12/31 04:11:25;;;;;;;;;6.50;4.00;;;;;19.97;46.54;101537.66;5058990;28;45376;-49
2021/12/31 04:13:50;;;;;;;;;6.50;6.50;;;;;19.96;46.69;101533.31;5059173;28;45298;-48
2021/12/31 04:16:16;;;;;;;;;5.00;5.00;;;;;19.93;46.77;101527.28;5057584;28;47041;-50
2021/12/31 04:18:41;;;;;;;;;5.75;4.25;;;;;19.95;46.46;101537.72;5058760;28;45346;-50
2021/12/31 04:21:07;;;;;;;;;5.00;5.00;;;;;19.94;46.57;101549.16;5059168;28;45543;-50
2021/12/31 04:23:35;;;;;;;;;5.75;5.75;;;;;19.93;46.85;101547.47;5059289;28;45429;-52
2021/12/31 04:26:00;;;;;;;;;10.75;7.00;;;;;19.92;46.60;101537.84;5058662;28;46399;-50
2021/12/31 04:28:27;;;;;;;;;5.00;5.00;;;;;19.93;46.65;101539.56;5058751;28;45341;-51
2021/12/31 04:30:53;;;;;;;;;6.00;5.25;;;;;19.92;46.32;101529.97;5058760;28;45388;-53
2021/12/31 04:33:19;;;;;;;;;5.00;5.00;;;;;19.91;46.15;101529.13;5058997;28;45551;-54
2021/12/31 04:35:45;;;;;;;;;10.25;5.25;;;;;19.89;46.71;101523.06;5057185;28;48292;-48
2021/12/31 04:38:10;;;;;;;;;4.75;4.00;;;;;19.91;46.55;101534.38;5057967;28;45294;-51
2021/12/31 04:40:36;;;;;;;;;5.75;5.00;;;;;19.91;46.71;101520.34;5058864;28;45208;-53
2021/12/31 04:43:01;;;;;;;;;6.50;4.00;;;;;19.89;46.36;101515.16;5058812;28;45626;-50
2021/12/31 04:45:27;;;;;;;;;4.00;4.00;;;;;19.90;46.22;101516.00;5058412;28;46015;-51
2021/12/31 04:47:52;;;;;;;;;5.75;4.00;;;;;19.88;46.71;101507.34;5058324;28;45430;-48
2021/12/31 04:50:18;;;;;;;;;3.75;3.75;;;;;19.87;46.19;101505.63;5058346;28;45335;-52
2021/12/31 04:52:43;;;;;;;;;5.00;5.00;;;;;19.87;46.33;101516.16;5058477;28;45382;-49
2021/12/31 04:55:10;;;;;;;;;7.00;4.75;;;;;19.87;46.47;101531.94;5058489;28;46293;-52
2021/12/31 04:57:35;;;;;;;;;4.75;4.75;;;;;19.86;46.15;101532.84;5057181;28;45357;-50
2021/12/31 05:00:00;;;;;;;;;5.00;4.50;;;;;19.86;46.52;101540.75;5058263;28;45371;-51
2021/12/31 05:02:26;;;;;;;;;5.00;4.00;;;;;19.86;46.52;101546.00;5058376;28;45425;-47
2021/12/31 05:04:51;;;;;;;;;4.00;4.00;;;;;19.85;46.26;101546.91;5057989;28;45418;-47
2021/12/31 05:07:17;;;;;;;;;5.50;4.50;;;;;19.84;46.36;101532.91;5057932;28;45251;-49
2021/12/31 05:09:42;;;;;;;;;3.75;3.75;;;;;19.85;46.34;101536.38;5058105;28;45247;-48
2021/12/31 05:12:12;;;;;;;;;4.00;4.00;;;;;19.84;46.29;101542.53;5058484;28;45271;-50
2021/12/31 05:14:37;;;;;;;;;5.00;5.00;;;;;19.83;46.13;101540.84;5058227;28;46784;-50
2021/12/31 05:17:03;;;;;;;;;4.50;4.50;;;;;19.83;46.51;101540.84;5057958;28;45350;-52
2021/12/31 05:19:28;;;;;;;;;5.50;4.00;;;;;19.83;46.69;101540.84;5057981;28;45482;-48
2021/12/31 05:21:54;;;;;;;;;4.75;4.75;;;;;19.82;46.52;101534.72;5058165;28;45344;-50
2021/12/31 05:24:19;;;;;;;;;3.75;3.75;;;;;19.82;46.07;101534.72;5057708;28;46130;-50
2021/12/31 05:26:44;;;;;;;;;4.50;4.50;;;;;19.81;46.66;101521.63;5057722;28;45338;-47
2021/12/31 05:29:09;;;;;;;;;4.25;3.75;;;;;19.78;46.53;101518.22;5058194;28;45405;-51
2021/12/31 05:31:35;;;;;;;;;5.75;4.25;;;;;19.81;46.52;101529.50;5057833;28;45362;-51
2021/12/31 05:34:01;;;;;;;;;5.00;5.00;;;;;19.81;46.23;101527.75;5057686;28;46191;-49
2021/12/31 05:36:26;;;;;;;;;5.00;3.00;;;;;19.79;46.49;101513.81;5057628;28;45325;-52
2021/12/31 05:38:51;;;;;;;;;3.25;3.25;;;;;19.80;46.08;101510.25;5056389;28;45359;-48
2021/12/31 05:41:17;;;;;;;;;4.50;4.00;;;;;19.78;46.17;101510.34;5057778;28;45662;-47
2021/12/31 05:43:42;;;;;;;;;4.75;4.00;;;;;19.79;46.39;101503.28;5056046;28;46243;-46
2021/12/31 05:46:08;;;;;;;;;4.25;3.25;;;;;19.78;46.60;101505.06;5057763;28;45360;-52
2021/12/31 05:48:33;;;;;;;;;5.00;4.00;;;;;19.77;46.30;101506.00;5057583;28;45313;-51
2021/12/31 05:50:59;;;;;;;;;3.75;3.75;;;;;19.78;46.65;101506.81;5057652;28;45457;-51
2021/12/31 05:53:24;;;;;;;;;2.50;2.50;;;;;19.76;46.39;101488.50;5057356;28;45399;-52
2021/12/31 05:55:50;;;;;;;;;3.00;3.00;;;;;19.76;45.96;101488.50;5057060;28;45292;-49
2021/12/31 05:58:15;;;;;;;;;5.00;3.50;;;;;19.77;46.30;101484.94;5057460;28;45345;-51
2021/12/31 06:00:41;;;;;;;;;3.25;3.25;;;;;19.76;46.05;101493.75;5056563;28;45573;-47
2021/12/31 06:03:06;;;;;;;;;4.50;3.00;;;;;19.76;46.34;101504.28;5057096;28;46001;-45
2021/12/31 06:05:31;;;;;;;;;3.00;3.00;;;;;19.76;46.25;101503.41;5057185;28;45329;-47
2021/12/31 06:07:57;;;;;;;;;5.25;5.25;;;;;19.75;46.00;101513.09;5057083;28;45469;-52
2021/12/31 06:10:24;;;;;;;;;3.00;3.00;;;;;19.75;46.50;101506.94;5057343;28;45411;-51
2021/12/31 06:12:51;;;;;;;;;4.00;4.00;;;;;19.74;45.94;101511.38;5056901;28;45405;-52
2021/12/31 06:15:18;;;;;;;;;4.00;3.50;;;;;19.72;46.16;101518.47;5056446;28;45427;-53
2021/12/31 06:17:44;;;;;;;;;3.00;3.00;;;;;19.74;45.98;101527.16;5057157;28;45349;-50
2021/12/31 06:20:10;;;;;;;;;3.00;3.00;;;;;19.73;45.85;101530.69;5057710;28;45553;-52
2021/12/31 06:22:36;;;;;;;;;4.00;4.00;;;;;19.73;45.93;101530.69;5056876;28;46214;-53
2021/12/31 06:25:02;;;;;;;;;5.00;4.00;;;;;19.73;46.32;101529.84;5055087;28;45491;-51
2021/12/31 06:27:28;;;;;;;;;3.25;3.25;;;;;19.72;46.46;101513.19;5057092;28;45436;-52
2021/12/31 06:29:53;;;;;;;;;2.00;2.00;;;;;19.72;45.95;101509.72;5055940;28;45440;-49
2021/12/31 06:32:18;;;;;;;;;3.25;3.25;;;;;19.72;46.03;101513.19;5056765;28;45587;-53
2021/12/31 06:34:44;;;;;;;;;2.75;2.75;;;;;19.70;46.00;101509.78;5056845;28;45406;-50
2021/12/31 06:37:09;;;;;;;;;4.00;4.00;;;;;19.70;46.28;101519.44;5057362;28;45429;-50
2021/12/31 06:39:35;;;;;;;;;4.00;4.00;;;;;19.70;46.55;101524.72;5057099;28;45411;-54
2021/12/31 06:42:03;;;;;;;;;6.75;5.00;;;;;19.70;46.38;101524.72;5056552;28;46232;-53
2021/12/31 06:44:29;;;;;;;;;4.00;3.00;;;;;19.68;45.85;101503.72;5056919;28;45248;-52
2021/12/31 06:46:55;;;;;;;;;3.25;3.00;;;;;19.69;46.29;101513.31;5056840;28;45259;-48
2021/12/31 06:49:20;;;;;;;;;1.50;1.50;;;;;19.68;45.96;101521.28;5056950;28;45201;-50
2021/12/31 06:51:45;;;;;;;;;3.50;3.50;;;;;19.69;46.10;101523.00;5056584;28;45303;-53
2021/12/31 06:54:11;;;;;;;;;3.00;3.00;;;;;19.66;46.27;101531.88;5056737;28;45212;-51
2021/12/31 06:56:36;;;;;;;;;4.50;3.00;;;;;19.68;46.19;101547.56;5056695;28;45299;-54
2021/12/31 06:59:01;;;;;;;;;3.50;3.50;;;;;19.68;46.37;101537.06;5056886;28;45165;-51
2021/12/31 07:01:27;;;;;;;;;5.25;2.75;;;;;19.67;46.17;101516.94;5056237;28;46127;-52
2021/12/31 07:03:52;;;;;;;;;3.25;3.25;;;;;19.66;46.32;101492.44;5055078;28;45580;-51
2021/12/31 07:06:17;;;;;;;;;2.25;2.25;;;;;19.65;46.45;101495.97;5056339;28;45257;-53
2021/12/31 07:08:45;;;;;;;;;4.25;4.00;;;;;19.66;45.92;101529.25;5056593;28;45405;-51
2021/12/31 07:11:11;;;;;;;;;4.50;3.00;;;;;19.65;45.81;101543.31;5056392;28;46485;-52
2021/12/31 07:13:36;;;;;;;;;6.25;5.00;;;;;19.63;45.52;101547.78;5054846;28;45450;-54
2021/12/31 07:16:02;;;;;;;;;5.75;5.75;;;;;19.61;45.52;101552.22;5056411;28;45333;-53
2021/12/31 07:18:27;;;;;;;;;6.00;4.75;;;;;19.59;45.83;101539.16;5056556;28;45560;-53
2021/12/31 07:20:53;;;;;;;;;4.00;4.00;;;;;19.55;45.00;101541.97;5055870;28;46613;-53
2021/12/31 07:23:20;;;;;;;;;4.50;4.50;;;;;19.53;45.13;101554.31;5056073;28;45393;-53
2021/12/31 07:25:45;;;;;;;;;6.50;5.75;;;;;19.48;45.21;101543.97;5056262;28;45263;-52
2021/12/31 07:28:16;;;;;;;;;6.25;6.00;;;;;19.46;45.05;101538.75;5058946;28;45522;-52
2021/12/31 07:30:43;;;;;;;;;4.00;4.00;;;;;19.42;45.03;101550.34;5060024;28;46546;-53
2021/12/31 07:33:21;;;;;;;;;7.50;7.00;;;;;19.37;45.34;101554.91;5059520;28;45342;-53
2021/12/31 07:35:46;;;;;;;;;5.00;5.00;;;;;19.35;45.05;101572.50;5059787;28;45436;-54
2021/12/31 07:38:24;;;;;;;;;8.00;6.50;;;;;19.33;45.25;101582.25;5060061;28;45561;-54
2021/12/31 07:40:51;;;;;;;;;5.00;5.00;;;;;19.29;44.85;101568.34;5059216;28;47262;-53
2021/12/31 07:43:18;;;;;;;;;7.00;7.00;;;;;19.25;45.18;101550.13;5059342;28;45256;-53
2021/12/31 07:45:43;;;;;;;;;5.50;5.50;;;;;19.21;44.98;101553.78;5059887;28;45330;-54
2021/12/31 07:48:09;;;;;;;;;7.50;6.00;;;;;19.16;45.40;101541.69;5059552;28;45197;-52
2021/12/31 07:50:36;;;;;;;;;7.00;6.00;;;;;19.08;45.51;101535.88;5059129;28;45275;-52
2021/12/31 07:53:03;;;;;;;;;5.00;5.00;;;;;19.02;45.60;101541.34;5057843;28;45836;-53
2021/12/31 07:55:28;;;;;;;;;7.75;6.00;;;;;18.97;45.64;101538.88;5058053;28;45526;-51
2021/12/31 07:57:54;;;;;;;;;5.50;5.00;;;;;18.92;45.47;101540.81;5059332;28;45493;-53
2021/12/31 08:00:19;;;;;;;;;5.00;4.25;;;;;18.90;45.76;101554.91;5058961;28;46622;-54
2021/12/31 08:02:45;;;;;;;;;6.00;4.00;;;;;18.86;45.43;101548.91;5058016;28;45502;-52
2021/12/31 08:05:10;;;;;;;;;6.75;6.00;;;;;18.83;45.66;101552.50;5059266;28;45257;-52
2021/12/31 08:07:36;;;;;;;;;5.00;5.00;;;;;18.80;45.73;101549.97;5059036;28;45489;-51
2021/12/31 08:10:03;;;;;;;;;3.75;3.75;;;;;18.77;46.02;101560.63;5057691;28;47883;-52
2021/12/31 08:12:29;;;;;;;;;2.00;0.00;;;;;18.79;46.10;101564.06;5058894;28;45267;-53
2021/12/31 08:14:55;;;;;;;;;5.00;5.00;;;;;18.77;45.74;101558.00;5059048;28;45356;-53
2021/12/31 08:17:20;;;;;;;;;4.75;4.75;;;;;18.77;45.71;101573.75;5059246;28;45301;-53
2021/12/31 08:19:46;;;;;;;;;5.75;5.75;;;;;18.76;45.79;101574.66;5059018;28;46239;-53
2021/12/31 08:22:11;;;;;;;;;6.50;5.00;;;;;18.76;46.12;101587.78;5059010;28;45240;-52
2021/12/31 08:24:37;;;;;;;;;4.25;4.25;;;;;18.74;46.11;101597.50;5059023;28;45346;-52
2021/12/31 08:27:02;;;;;;;;;5.25;5.25;;;;;18.76;45.63;101613.19;5059018;28;45624;-52
2021/12/31 08:29:27;;;;;;;;;4.50;4.50;;;;;18.75;46.08;101604.47;5058691;28;45435;-50
2021/12/31 08:31:53;;;;;;;;;6.00;6.00;;;;;18.72;45.80;101591.44;5058535;28;45446;-53
2021/12/31 08:34:18;;;;;;;;;6.00;5.00;;;;;18.74;46.17;101589.59;5059042;28;45461;-52
2021/12/31 08:36:44;;;;;;;;;4.00;4.00;;;;;18.76;45.90;101584.28;5059080;28;45371;-52
2021/12/31 08:39:12;;;;;;;;;5.25;5.25;;;;;18.75;46.05;101567.69;5058077;28;45797;-53
2021/12/31 08:41:39;;;;;;;;;5.00;4.00;;;;;18.75;46.11;101583.44;5058677;28;45232;-52
2021/12/31 08:44:05;;;;;;;;;7.75;5.25;;;;;18.75;46.26;101598.34;5058659;28;45863;-52
2021/12/31 08:46:32;;;;;;;;;5.25;5.25;;;;;18.73;46.35;101585.28;5057348;28;45590;-53
2021/12/31 08:48:57;;;;;;;;;7.00;5.50;;;;;18.76;45.95;101587.78;5058324;28;46576;-54
2021/12/31 08:51:24;;;;;;;;;8.50;5.50;;;;;18.75;46.06;101599.22;5058115;28;45451;-52
2021/12/31 08:53:50;;;;;;;;;6.00;5.50;;;;;18.78;46.30;101591.22;5058807;28;45276;-52
2021/12/31 08:56:15;;;;;;;;;6.75;5.75;;;;;18.76;46.25;101595.66;5057890;28;45409;-50
2021/12/31 08:58:41;;;;;;;;;6.25;5.50;;;;;18.75;46.18;101578.19;5057869;28;55201;-53
2021/12/31 09:01:06;;;;;;;;;6.25;6.00;;;;;18.76;46.39;101594.78;5058064;28;45937;-49
2021/12/31 09:03:31;;;;;;;;;6.25;5.25;;;;;18.73;46.22;101593.16;5058333;28;45418;-53
2021/12/31 09:05:57;;;;;;;;;5.00;4.50;;;;;18.74;46.39;101586.97;5058404;28;45476;-53
2021/12/31 09:08:23;;;;;;;;;4.00;4.00;;;;;18.75;46.40;101585.19;5057965;28;46799;-53
2021/12/31 09:10:48;;;;;;;;;6.00;6.00;;;;;18.75;46.01;101585.19;5058418;28;45237;-53
2021/12/31 09:13:14;;;;;;;;;5.50;5.50;;;;;18.75;46.20;101609.72;5058246;28;45546;-52
2021/12/31 09:15:39;;;;;;;;;4.75;4.75;;;;;18.76;46.60;101626.31;5058273;28;45217;-50
2021/12/31 09:18:05;;;;;;;;;6.00;5.50;;;;;18.76;46.19;101626.31;5057792;28;46037;-53
2021/12/31 09:20:30;;;;;;;;;4.25;4.25;;;;;18.76;46.30;101637.69;5057849;28;45360;-50
2021/12/31 09:22:56;;;;;;;;;4.00;4.00;;;;;18.75;46.19;101630.72;5058156;28;45278;-53
2021/12/31 09:25:21;;;;;;;;;9.00;6.00;;;;;18.75;46.20;101608.84;5058288;28;45724;-51
2021/12/31 09:27:46;;;;;;;;;4.50;4.50;;;;;18.74;46.06;101602.75;5056718;28;47190;-53
2021/12/31 09:30:13;;;;;;;;;7.25;5.25;;;;;18.74;46.32;101623.75;5057725;28;45249;-52
2021/12/31 09:32:39;;;;;;;;;4.75;4.75;;;;;18.73;46.36;101629.91;5057774;28;45439;-51
2021/12/31 09:35:06;;;;;;;;;7.50;4.25;;;;;18.76;46.57;101632.44;5057919;28;45378;-51
2021/12/31 09:37:31;;;;;;;;;7.00;6.00;;;;;18.75;46.24;101625.47;5057439;28;46374;-49
2021/12/31 09:39:56;;;;;;;;;7.75;6.50;;;;;18.71;46.50;101608.09;5057614;28;45409;-47
2021/12/31 09:42:22;;;;;;;;;7.00;7.00;;;;;18.68;46.26;101609.06;5057703;28;45353;-49
2021/12/31 09:44:47;;;;;;;;;9.00;6.00;;;;;18.65;46.47;101618.81;5058233;28;45379;-50
2021/12/31 09:47:15;;;;;;;;;5.50;5.25;;;;;18.65;46.62;101631.94;5057233;28;46607;-51
2021/12/31 09:49:40;;;;;;;;;5.75;5.00;;;;;18.65;46.61;101639.84;5056581;28;45721;-53
2021/12/31 09:52:13;;;;;;;;;5.50;5.00;;;;;18.67;46.80;101648.53;5057498;28;45263;-51
2021/12/31 09:54:42;;;;;;;;;4.75;4.75;;;;;18.70;46.86;101664.16;5057687;28;45383;-52
2021/12/31 09:57:16;;;;;;;;;5.25;5.25;;;;;18.73;46.58;101671.94;5057039;28;46194;-49
2021/12/31 09:59:41;;;;;;;;;5.50;5.50;;;;;18.76;47.07;101684.97;5057303;28;45250;-49
2021/12/31 10:02:09;;;;;;;;;5.50;5.50;;;;;18.76;46.82;101674.47;5057422;28;45537;-53
2021/12/31 10:05:02;;;;;;;;;10.00;7.00;;;;;18.81;46.42;101687.44;5057583;28;45612;-50
2021/12/31 10:07:29;;;;;;;;;7.00;6.00;;;;;18.83;46.75;101685.63;5068483;28;46708;-47
2021/12/31 10:10:05;;;;;;;;;9.50;7.00;;;;;18.78;46.50;101684.91;5057045;28;45833;-52
2021/12/31 10:13:07;;;;;;;;;9.00;5.50;;;;;18.82;46.41;101682.09;5057233;28;45448;-52
2021/12/31 10:15:39;;;;;;;;;5.25;5.25;;;;;18.82;46.56;101690.00;4975592;28;45373;-51
2021/12/31 10:18:15;;;;;;;;;9.75;7.00;;;;;18.80;46.31;101680.47;5044190;28;46239;-51
2021/12/31 10:20:50;;;;;;;;;7.00;6.50;;;;;18.80;46.76;101681.31;5056741;28;45437;-51
2021/12/31 10:23:19;;;;;;;;;6.00;5.00;;;;;18.82;46.71;101690.00;5057020;28;45343;-46
2021/12/31 10:25:44;;;;;;;;;6.75;5.00;;;;;18.82;46.47;101699.66;5055924;28;45707;-53
2021/12/31 10:28:12;;;;;;;;;8.50;6.25;;;;;18.82;46.97;101705.75;5056805;28;46327;-52
2021/12/31 10:30:39;;;;;;;;;6.00;5.00;;;;;18.82;46.63;101705.75;5056493;28;45301;-52
2021/12/31 10:33:04;;;;;;;;;7.00;6.00;;;;;18.81;47.07;101698.78;5056980;28;45177;-52
2021/12/31 10:35:40;;;;;;;;;7.00;6.50;;;;;18.81;47.15;101700.56;5057084;28;45581;-53
2021/12/31 10:38:06;;;;;;;;;7.75;6.25;;;;;18.82;47.47;101723.28;5056630;28;46274;-51
2021/12/31 10:40:39;;;;;;;;;8.25;6.25;;;;;18.82;47.62;101718.88;5056675;28;45254;-51
2021/12/31 10:43:16;;;;;;;;;8.00;6.75;;;;;18.83;47.43;101738.97;5056736;28;45264;-49
2021/12/31 10:46:05;;;;;;;;;5.00;5.00;;;;;18.84;47.66;101759.09;5056678;28;45659;-48
2021/12/31 10:48:48;;;;;;;;;5.50;5.50;;;;;18.87;47.91;101770.41;5056425;28;45666;-51
2021/12/31 10:51:16;;;;;;;;;8.50;7.00;;;;;18.90;48.17;101778.19;5056490;28;45365;-49
2021/12/31 10:53:50;;;;;;;;;7.25;6.50;;;;;18.93;47.97;101764.94;5056593;28;45417;-52
2021/12/31 10:56:15;;;;;;;;;8.25;6.00;;;;;19.01;48.04;101762.97;5056677;28;45408;-51
2021/12/31 10:58:47;;;;;;;;;8.00;6.25;;;;;19.04;48.68;101765.47;5056219;28;46121;-50
2021/12/31 11:01:15;;;;;;;;;8.50;6.75;;;;;19.04;49.10;101762.00;5056381;28;46711;-50
2021/12/31 11:03:41;;;;;;;;;5.75;4.00;;;;;19.04;49.00;101744.44;5056408;28;45763;-49
2021/12/31 11:06:12;;;;;;;;;7.00;5.00;;;;;19.07;49.02;101743.50;5056561;28;45421;-56
2021/12/31 11:08:41;;;;;;;;;5.50;4.25;;;;;19.06;49.02;101745.25;5055884;28;47535;-52
2021/12/31 11:11:08;;;;;;;;;7.00;7.00;;;;;19.04;49.80;101757.59;5056146;28;45410;-54
2021/12/31 11:13:33;;;;;;;;;5.25;5.25;;;;;19.05;49.59;101764.56;5056158;28;45333;-47
2021/12/31 11:16:00;;;;;;;;;8.00;5.50;;;;;19.08;49.85;101756.56;5056388;28;45335;-51
2021/12/31 11:18:26;;;;;;;;;7.00;6.00;;;;;19.13;49.80;101748.53;5055716;28;45433;-51
2021/12/31 11:20:56;;;;;;;;;9.25;6.00;;;;;19.19;49.73;101752.72;5054198;28;45348;-54
2021/12/31 11:23:30;;;;;;;;;7.00;5.75;;;;;19.29;49.09;101762.00;5056487;28;45852;-54